createdAt,value
2023-05-14T00:00:57.920Z,8.85
2023-05-14T00:03:24.622Z,8.48
2023-05-14T00:05:51.524Z,9.52
2023-05-14T00:08:19.603Z,10.93
2023-05-14T00:10:46.186Z,9.43
2023-05-14T00:13:12.835Z,12.45
2023-05-14T00:15:39.779Z,8.88
2023-05-14T00:18:06.537Z,9.38
2023-05-14T00:20:33.218Z,11.43
2023-05-14T00:22:59.856Z,9.48
2023-05-14T00:25:28.328Z,12.27
2023-05-14T00:27:54.920Z,9.82
2023-05-14T00:30:21.656Z,9.70
2023-05-14T00:32:48.555Z,8.70
2023-05-14T00:35:15.308Z,9.23
2023-05-14T00:37:41.921Z,10.25
2023-05-14T00:40:09.639Z,9.93
2023-05-14T00:42:37.643Z,10.60
2023-05-14T00:45:06.075Z,10.37
2023-05-14T00:47:32.835Z,9.65
2023-05-14T00:49:59.526Z,11.85
2023-05-14T00:52:26.370Z,9.90
2023-05-14T00:54:54.151Z,10.65
2023-05-14T00:57:20.887Z,9.63
2023-05-14T00:59:48.924Z,9.88
2023-05-14T01:02:15.565Z,9.82
2023-05-14T01:04:42.490Z,10.38
2023-05-14T01:07:16.717Z,11.30
2023-05-14T01:09:49.954Z,9.47
2023-05-14T01:12:21.549Z,10.50
2023-05-14T01:14:55.074Z,9.93
2023-05-14T01:17:22.818Z,10.23
2023-05-14T01:19:51.409Z,9.10
2023-05-14T01:22:19.466Z,8.97
2023-05-14T01:24:46.337Z,9.82
2023-05-14T01:27:22.300Z,9.55
2023-05-14T01:29:53.347Z,10.05
2023-05-14T01:32:21.116Z,8.63
2023-05-14T01:34:50.408Z,8.80
2023-05-14T01:37:19.229Z,9.55
2023-05-14T01:39:46.320Z,7.88
2023-05-14T01:42:13.550Z,8.90
2023-05-14T01:44:40.764Z,9.07
2023-05-14T01:47:07.433Z,8.57
2023-05-14T01:49:34.066Z,9.80
2023-05-14T01:52:00.704Z,8.35
2023-05-14T01:54:28.806Z,8.60
2023-05-14T01:56:55.413Z,8.52
2023-05-14T01:59:22.378Z,10.33
2023-05-14T02:01:49.046Z,7.97
2023-05-14T02:04:15.866Z,8.85
2023-05-14T02:06:42.531Z,8.10
2023-05-14T02:09:09.182Z,8.95
2023-05-14T02:11:37.289Z,7.53
2023-05-14T02:14:03.931Z,8.90
2023-05-14T02:16:30.545Z,9.52
2023-05-14T02:18:57.327Z,9.50
2023-05-14T02:21:24.517Z,9.88
2023-05-14T02:23:51.217Z,8.80
2023-05-14T02:26:17.806Z,10.00
2023-05-14T02:28:45.809Z,9.98
2023-05-14T02:31:12.463Z,8.60
2023-05-14T02:33:39.164Z,8.05
2023-05-14T02:36:06.244Z,10.10
2023-05-14T02:38:32.873Z,8.25
2023-05-14T02:40:59.514Z,11.98
2023-05-14T02:43:26.189Z,8.32
2023-05-14T02:45:54.491Z,8.98
2023-05-14T02:48:21.080Z,9.37
2023-05-14T02:50:49.971Z,9.05
2023-05-14T02:53:16.677Z,9.05
2023-05-14T02:55:43.453Z,8.52
2023-05-14T02:58:10.072Z,8.43
2023-05-14T03:00:36.819Z,9.07
2023-05-14T03:03:05.439Z,8.25
2023-05-14T03:05:32.555Z,9.98
2023-05-14T03:07:59.170Z,9.10
2023-05-14T03:10:26.167Z,8.00
2023-05-14T03:12:52.984Z,8.17
2023-05-14T03:15:19.749Z,8.65
2023-05-14T03:17:46.449Z,8.70
2023-05-14T03:20:14.778Z,9.43
2023-05-14T03:22:41.430Z,8.70
2023-05-14T03:25:08.835Z,8.43
2023-05-14T03:27:35.482Z,8.48
2023-05-14T03:30:02.172Z,9.75
2023-05-14T03:32:29.619Z,8.88
2023-05-14T03:34:56.353Z,8.70
2023-05-14T03:37:39.319Z,8.40
2023-05-14T03:40:07.535Z,9.35
2023-05-14T03:42:34.094Z,9.20
2023-05-14T03:45:00.773Z,8.98
2023-05-14T03:47:27.426Z,8.32
2023-05-14T03:49:54.095Z,9.10
2023-05-14T03:52:20.737Z,8.57
2023-05-14T03:54:59.735Z,10.45
2023-05-14T03:57:26.495Z,8.25
2023-05-14T03:59:53.104Z,8.15
2023-05-14T04:02:19.786Z,10.10
2023-05-14T04:04:46.519Z,8.98
2023-05-14T04:07:13.184Z,8.27
2023-05-14T04:09:39.990Z,8.45
2023-05-14T04:12:09.238Z,8.57
2023-05-14T04:14:35.897Z,7.73
2023-05-14T04:17:02.562Z,8.07
2023-05-14T04:19:29.306Z,9.10
2023-05-14T04:21:55.952Z,7.45
2023-05-14T04:24:22.720Z,8.27
2023-05-14T04:26:49.382Z,6.93
2023-05-14T04:29:17.372Z,9.52
2023-05-14T04:31:44.340Z,7.75
2023-05-14T04:34:11.000Z,7.72
2023-05-14T04:36:37.653Z,8.80
2023-05-14T04:39:04.265Z,7.33
2023-05-14T04:41:31.119Z,7.20
2023-05-14T04:44:00.482Z,10.85
2023-05-14T04:46:28.876Z,8.18
2023-05-14T04:48:55.964Z,9.65
2023-05-14T04:51:22.897Z,8.23
2023-05-14T04:53:49.573Z,10.13
2023-05-14T04:56:16.263Z,7.68
2023-05-14T04:58:42.894Z,8.63
2023-05-14T05:01:09.593Z,9.15
2023-05-14T05:03:37.737Z,7.17
2023-05-14T05:06:04.858Z,7.80
2023-05-14T05:08:31.438Z,10.50
2023-05-14T05:10:58.092Z,8.90
2023-05-14T05:13:24.948Z,8.57
2023-05-14T05:15:51.635Z,10.70
2023-05-14T05:18:18.325Z,8.32
2023-05-14T05:20:46.356Z,8.88
2023-05-14T05:23:13.022Z,7.28
2023-05-14T05:25:39.594Z,8.95
2023-05-14T05:28:06.305Z,7.93
2023-05-14T05:30:33.159Z,8.00
2023-05-14T05:32:59.849Z,8.38
2023-05-14T05:35:26.556Z,8.25
2023-05-14T05:37:54.574Z,8.10
2023-05-14T05:40:21.251Z,7.43
2023-05-14T05:42:48.330Z,8.35
2023-05-14T05:45:15.010Z,6.72
2023-05-14T05:47:41.666Z,8.95
2023-05-14T05:50:09.479Z,8.05
2023-05-14T05:52:36.130Z,7.77
2023-05-14T05:55:04.697Z,7.78
2023-05-14T05:57:31.347Z,7.95
2023-05-14T05:59:58.060Z,8.15
2023-05-14T06:02:24.908Z,7.88
2023-05-14T06:04:51.777Z,6.67
2023-05-14T06:07:18.510Z,8.82
2023-05-14T06:09:45.116Z,8.00
2023-05-14T06:12:13.097Z,6.68
2023-05-14T06:14:39.715Z,6.97
2023-05-14T06:17:06.363Z,7.17
2023-05-14T06:19:32.943Z,7.13
2023-05-14T06:21:59.586Z,6.88
2023-05-14T06:24:26.273Z,7.57
2023-05-14T06:26:52.973Z,7.32
2023-05-14T06:29:20.978Z,7.13
2023-05-14T06:31:47.732Z,7.63
2023-05-14T06:34:14.470Z,6.93
2023-05-14T06:36:41.096Z,6.82
2023-05-14T06:39:07.683Z,6.50
2023-05-14T06:41:34.248Z,7.00
2023-05-14T06:44:00.883Z,6.43
2023-05-14T06:46:28.871Z,6.85
2023-05-14T06:48:56.763Z,7.68
2023-05-14T06:51:25.538Z,7.28
2023-05-14T06:53:52.211Z,6.70
2023-05-14T06:56:18.886Z,6.95
2023-05-14T06:58:45.529Z,11.25
2023-05-14T07:01:12.230Z,10.27
2023-05-14T07:03:40.325Z,6.80
2023-05-14T07:06:07.074Z,6.40
2023-05-14T07:08:33.833Z,6.72
2023-05-14T07:11:00.496Z,6.63
2023-05-14T07:13:28.618Z,7.35
2023-05-14T07:15:55.483Z,8.20
2023-05-14T07:18:22.300Z,7.33
2023-05-14T07:20:50.565Z,5.88
2023-05-14T07:23:19.191Z,7.40
2023-05-14T07:25:46.567Z,7.70
2023-05-14T07:28:13.291Z,7.82
2023-05-14T07:30:39.984Z,6.70
2023-05-14T07:33:06.725Z,7.80
2023-05-14T07:35:33.554Z,8.75
2023-05-14T07:38:01.965Z,6.90
2023-05-14T07:40:28.663Z,8.57
2023-05-14T07:42:55.260Z,6.47
2023-05-14T07:45:21.994Z,7.35
2023-05-14T07:47:48.707Z,8.27
2023-05-14T07:50:15.455Z,7.18
2023-05-14T07:52:42.141Z,7.10
2023-05-14T07:55:10.986Z,8.87
2023-05-14T07:57:38.065Z,7.22
2023-05-14T08:00:05.758Z,5.93
2023-05-14T08:02:32.432Z,6.78
2023-05-14T08:04:59.138Z,6.47
2023-05-14T08:07:25.864Z,6.77
2023-05-14T08:09:52.511Z,7.10
2023-05-14T08:12:20.630Z,7.28
2023-05-14T08:14:47.258Z,7.88
2023-05-14T08:17:14.010Z,7.13
2023-05-14T08:19:40.813Z,6.53
2023-05-14T08:22:07.549Z,7.80
2023-05-14T08:24:34.199Z,7.40
2023-05-14T08:27:00.870Z,7.57
2023-05-14T08:29:28.949Z,8.02
2023-05-14T08:31:55.575Z,7.50
2023-05-14T08:34:22.198Z,7.38
2023-05-14T08:36:48.853Z,6.00
2023-05-14T08:39:15.447Z,7.30
2023-05-14T08:41:42.481Z,7.53
2023-05-14T08:44:13.162Z,6.93
2023-05-14T08:46:41.699Z,7.70
2023-05-14T08:49:21.905Z,7.75
2023-05-14T08:51:48.753Z,7.30
2023-05-14T08:54:16.822Z,8.80
2023-05-14T08:56:44.640Z,8.23
2023-05-14T08:59:11.317Z,6.72
2023-05-14T09:01:38.404Z,7.93
2023-05-14T09:04:07.232Z,6.60
2023-05-14T09:06:35.568Z,7.47
2023-05-14T09:09:02.490Z,7.40
2023-05-14T09:11:29.184Z,7.40
2023-05-14T09:13:56.038Z,6.97
2023-05-14T09:16:23.909Z,7.72
2023-05-14T09:18:51.430Z,7.30
2023-05-14T09:21:20.068Z,6.83
2023-05-14T09:23:46.650Z,7.18
2023-05-14T09:26:17.732Z,6.75
2023-05-14T09:28:44.857Z,6.78
2023-05-14T09:31:11.573Z,6.32
2023-05-14T09:33:38.240Z,7.00
2023-05-14T09:36:05.163Z,6.10
2023-05-14T09:38:33.708Z,5.80
2023-05-14T09:41:00.826Z,6.63
2023-05-14T09:43:27.542Z,6.95
2023-05-14T09:45:54.244Z,5.73
2023-05-14T09:48:20.898Z,6.85
2023-05-14T09:50:47.665Z,5.82
2023-05-14T09:53:14.713Z,7.25
2023-05-14T09:55:42.759Z,6.65
2023-05-14T09:58:09.516Z,7.00
2023-05-14T10:00:36.818Z,7.07
2023-05-14T10:03:06.464Z,5.95
2023-05-14T10:05:35.654Z,6.00
2023-05-14T10:08:08.744Z,6.10
2023-05-14T10:10:37.267Z,7.53
2023-05-14T10:13:10.440Z,5.55
2023-05-14T10:15:40.120Z,6.65
2023-05-14T10:18:10.386Z,6.00
2023-05-14T10:20:38.146Z,5.97
2023-05-14T10:23:06.033Z,6.10
2023-05-14T10:25:33.064Z,7.03
2023-05-14T10:27:59.837Z,6.22
2023-05-14T10:30:27.847Z,5.65
2023-05-14T10:33:11.963Z,8.77
2023-05-14T10:35:52.244Z,6.63
2023-05-14T10:38:23.029Z,6.28
2023-05-14T10:40:51.582Z,7.07
2023-05-14T10:43:20.258Z,6.82
2023-05-14T10:45:48.547Z,6.35
2023-05-14T10:48:15.183Z,6.80
2023-05-14T10:50:42.204Z,6.18
2023-05-14T10:53:11.080Z,5.15
2023-05-14T10:55:38.619Z,6.43
2023-05-14T10:58:06.193Z,5.63
2023-05-14T11:00:34.164Z,5.50
2023-05-14T11:03:04.418Z,5.03
2023-05-14T11:05:31.824Z,5.70
2023-05-14T11:07:59.270Z,5.63
2023-05-14T11:10:27.140Z,6.07
2023-05-14T11:12:53.810Z,5.53
2023-05-14T11:15:22.071Z,4.65
2023-05-14T11:17:50.387Z,5.78
2023-05-14T11:20:19.641Z,6.13
2023-05-14T11:22:47.834Z,5.95
2023-05-14T11:25:15.264Z,6.70
2023-05-14T11:27:44.140Z,6.93
2023-05-14T11:30:13.954Z,5.43
2023-05-14T11:32:40.856Z,5.10
2023-05-14T11:35:08.395Z,6.55
2023-05-14T11:37:39.371Z,5.37
2023-05-14T11:40:08.797Z,7.45
2023-05-14T11:42:36.579Z,5.53
2023-05-14T11:45:03.702Z,5.25
2023-05-14T11:47:30.466Z,5.78
2023-05-14T11:49:57.167Z,7.47
2023-05-14T11:52:23.858Z,7.47
2023-05-14T11:54:52.111Z,6.20
2023-05-14T11:57:20.921Z,6.32
2023-05-14T11:59:48.297Z,6.72
2023-05-14T12:02:17.684Z,6.23
2023-05-14T12:04:49.354Z,5.97
2023-05-14T12:07:16.533Z,5.43
2023-05-14T12:09:45.590Z,6.93
2023-05-14T12:12:13.651Z,6.63
2023-05-14T12:14:42.734Z,6.20
2023-05-14T12:17:14.308Z,7.70
2023-05-14T12:19:41.883Z,5.00
2023-05-14T12:22:09.110Z,4.88
2023-05-14T12:24:35.850Z,6.18
2023-05-14T12:27:04.177Z,5.80
2023-05-14T12:29:35.780Z,6.05
2023-05-14T12:32:02.481Z,6.68
2023-05-14T12:34:29.140Z,7.28
2023-05-14T12:36:55.992Z,5.07
2023-05-14T12:39:22.977Z,5.10
2023-05-14T12:41:49.608Z,5.50
2023-05-14T12:44:16.283Z,5.90
2023-05-14T12:46:44.499Z,5.65
2023-05-14T12:49:11.109Z,5.90
2023-05-14T12:51:37.778Z,5.57
2023-05-14T12:54:04.689Z,6.03
2023-05-14T12:56:31.534Z,7.13
2023-05-14T12:58:58.265Z,5.78
2023-05-14T13:01:25.044Z,4.80
2023-05-14T13:03:53.407Z,4.60
2023-05-14T13:06:20.082Z,5.90
2023-05-14T13:08:46.673Z,5.22
2023-05-14T13:11:13.402Z,4.88
2023-05-14T13:13:40.116Z,5.00
2023-05-14T13:16:07.125Z,5.97
2023-05-14T13:18:33.834Z,4.78
2023-05-14T13:21:02.593Z,6.38
2023-05-14T13:23:29.237Z,5.32
2023-05-14T13:25:56.094Z,5.72
2023-05-14T13:28:22.742Z,4.57
2023-05-14T13:31:04.379Z,5.93
2023-05-14T13:33:30.988Z,5.32
2023-05-14T13:35:57.641Z,5.10
2023-05-14T13:38:25.725Z,5.72
2023-05-14T13:40:52.312Z,4.73
2023-05-14T13:43:18.938Z,5.18
2023-05-14T13:45:45.792Z,4.88
2023-05-14T13:48:12.492Z,5.50
2023-05-14T13:50:39.154Z,5.55
2023-05-14T13:53:05.785Z,4.73
2023-05-14T13:55:33.904Z,5.95
2023-05-14T13:58:01.484Z,5.97
2023-05-14T14:00:28.133Z,5.20
2023-05-14T14:02:54.830Z,7.03
2023-05-14T14:05:21.784Z,5.80
2023-05-14T14:07:50.425Z,5.20
2023-05-14T14:10:18.330Z,6.00
2023-05-14T14:12:46.399Z,5.50
2023-05-14T14:15:13.078Z,5.70
2023-05-14T14:17:39.903Z,6.03
2023-05-14T14:20:07.814Z,7.00
2023-05-14T14:22:34.477Z,4.60
2023-05-14T14:25:01.522Z,5.40
2023-05-14T14:27:28.183Z,5.32
2023-05-14T14:29:56.112Z,6.10
2023-05-14T14:32:22.749Z,6.07
2023-05-14T14:34:49.336Z,5.40
2023-05-14T14:37:15.985Z,5.13
2023-05-14T14:39:42.654Z,4.43
2023-05-14T14:42:09.334Z,4.80
2023-05-14T14:44:36.018Z,5.43
2023-05-14T14:47:04.448Z,6.15
2023-05-14T14:49:31.172Z,5.05
2023-05-14T14:51:57.937Z,5.63
2023-05-14T14:54:24.603Z,4.90
2023-05-14T14:56:51.199Z,4.53
2023-05-14T14:59:18.021Z,4.50
2023-05-14T15:01:44.744Z,5.00
2023-05-14T15:04:12.899Z,5.40
2023-05-14T15:06:39.830Z,5.87
2023-05-14T15:09:07.151Z,4.93
2023-05-14T15:11:36.052Z,4.25
2023-05-14T15:14:04.272Z,4.57
2023-05-14T15:16:30.908Z,5.50
2023-05-14T15:18:57.689Z,7.70
2023-05-14T15:21:25.780Z,4.95
2023-05-14T15:23:52.416Z,5.15
2023-05-14T15:26:19.068Z,4.55
2023-05-14T15:28:45.688Z,5.75
2023-05-14T15:31:12.376Z,5.27
2023-05-14T15:33:39.106Z,4.82
2023-05-14T15:36:06.889Z,4.70
2023-05-14T15:38:35.172Z,5.45
2023-05-14T15:41:01.906Z,6.68
2023-05-14T15:43:28.551Z,5.17
2023-05-14T15:45:55.199Z,5.43
2023-05-14T15:48:21.888Z,4.93
2023-05-14T15:50:49.636Z,4.63
2023-05-14T15:53:16.559Z,5.00
2023-05-14T15:55:44.681Z,4.47
2023-05-14T15:58:11.337Z,5.25
2023-05-14T16:00:37.981Z,5.20
2023-05-14T16:03:04.721Z,5.28
2023-05-14T16:05:31.480Z,5.30
2023-05-14T16:07:58.721Z,5.03
2023-05-14T16:10:25.782Z,5.45
2023-05-14T16:12:54.069Z,5.40
2023-05-14T16:15:20.899Z,5.43
2023-05-14T16:17:47.567Z,6.40
2023-05-14T16:20:15.189Z,4.80
2023-05-14T16:22:41.916Z,5.40
2023-05-14T16:25:08.777Z,6.05
2023-05-14T16:27:35.452Z,4.63
2023-05-14T16:30:04.144Z,4.90
2023-05-14T16:32:30.839Z,5.03
2023-05-14T16:34:57.479Z,5.07
2023-05-14T16:37:24.309Z,5.07
2023-05-14T16:39:51.014Z,4.88
2023-05-14T16:42:17.709Z,4.97
2023-05-14T16:44:44.464Z,5.97
2023-05-14T16:47:12.558Z,4.75
2023-05-14T16:49:39.221Z,5.07
2023-05-14T16:52:06.881Z,5.07
2023-05-14T16:54:33.684Z,5.55
2023-05-14T16:57:00.329Z,4.97
2023-05-14T16:59:26.982Z,4.38
2023-05-14T17:01:53.655Z,3.80
2023-05-14T17:04:21.736Z,4.60
2023-05-14T17:06:48.499Z,5.00
2023-05-14T17:09:15.154Z,4.80
2023-05-14T17:11:41.839Z,7.00
2023-05-14T17:14:08.484Z,4.85
2023-05-14T17:16:35.139Z,4.97
2023-05-14T17:19:02.067Z,5.40
2023-05-14T17:21:30.140Z,4.23
2023-05-14T17:23:56.798Z,5.20
2023-05-14T17:26:23.531Z,5.38
2023-05-14T17:28:50.208Z,5.18
2023-05-14T17:31:16.911Z,4.10
2023-05-14T17:33:43.565Z,4.57
2023-05-14T17:36:10.230Z,5.40
2023-05-14T17:38:38.278Z,5.07
2023-05-14T17:41:04.977Z,5.53
2023-05-14T17:43:31.663Z,5.05
2023-05-14T17:45:58.316Z,4.40
2023-05-14T17:48:24.969Z,4.57
2023-05-14T17:50:52.142Z,4.80
2023-05-14T17:53:19.061Z,4.68
2023-05-14T17:55:47.148Z,6.07
2023-05-14T17:58:14.336Z,4.63
2023-05-14T18:00:41.349Z,4.55
2023-05-14T18:03:08.332Z,6.00
2023-05-14T18:05:35.046Z,4.60
2023-05-14T18:08:01.672Z,5.35
2023-05-14T18:10:28.364Z,4.43
2023-05-14T18:12:56.610Z,5.40
2023-05-14T18:15:23.793Z,4.68
2023-05-14T18:17:50.765Z,5.05
2023-05-14T18:20:17.523Z,6.25
2023-05-14T18:22:44.261Z,4.30
2023-05-14T18:25:10.888Z,4.43
2023-05-14T18:27:37.552Z,4.68
2023-05-14T18:30:07.348Z,4.75
2023-05-14T18:32:34.032Z,4.88
2023-05-14T18:35:00.660Z,5.87
2023-05-14T18:37:27.648Z,4.65
2023-05-14T18:39:54.312Z,6.25
2023-05-14T18:42:20.906Z,7.13
2023-05-14T18:44:47.505Z,6.50
2023-05-14T18:47:15.654Z,6.13
2023-05-14T18:49:42.502Z,6.70
2023-05-14T18:52:09.139Z,7.22
2023-05-14T18:54:36.039Z,6.13
2023-05-14T18:57:02.769Z,6.60
2023-05-14T18:59:29.506Z,7.57
2023-05-14T19:01:56.249Z,8.88
2023-05-14T19:04:25.051Z,6.60
2023-05-14T19:06:51.845Z,4.88
2023-05-14T19:09:18.456Z,7.13
2023-05-14T19:11:45.056Z,6.23
2023-05-14T19:14:11.662Z,5.78
2023-05-14T19:16:38.355Z,6.25
2023-05-14T19:19:05.052Z,8.07
2023-05-14T19:21:33.052Z,7.28
2023-05-14T19:23:59.731Z,6.03
2023-05-14T19:26:26.464Z,6.32
2023-05-14T19:28:53.144Z,6.68
2023-05-14T19:31:19.892Z,15.77
2023-05-14T19:33:46.638Z,11.77
2023-05-14T19:36:13.293Z,10.57
2023-05-14T19:38:41.589Z,8.35
2023-05-14T19:41:08.227Z,9.30
2023-05-14T19:43:34.905Z,7.35
2023-05-14T19:46:01.820Z,12.20
2023-05-14T19:48:28.553Z,9.17
2023-05-14T19:50:55.226Z,8.82
2023-05-14T19:53:21.887Z,6.68
2023-05-14T19:55:49.868Z,6.47
2023-05-14T19:58:16.508Z,8.52
2023-05-14T20:00:43.207Z,7.60
2023-05-14T20:03:10.346Z,7.70
2023-05-14T20:05:37.272Z,6.38
2023-05-14T20:08:04.178Z,6.80
2023-05-14T20:10:30.834Z,7.25
2023-05-14T20:12:58.850Z,6.93
2023-05-14T20:15:26.305Z,8.68
2023-05-14T20:17:52.891Z,6.88
2023-05-14T20:20:19.555Z,8.15
2023-05-14T20:22:46.232Z,7.75
2023-05-14T20:25:13.046Z,7.27
2023-05-14T20:27:40.372Z,8.02
2023-05-14T20:30:09.558Z,6.20
2023-05-14T20:32:36.235Z,7.40
2023-05-14T20:35:03.090Z,6.95
2023-05-14T20:37:30.032Z,7.00
2023-05-14T20:39:56.743Z,6.93
2023-05-14T20:42:23.776Z,8.38
2023-05-14T20:44:50.622Z,9.63
2023-05-14T20:47:18.853Z,7.38
2023-05-14T20:49:45.574Z,10.43
2023-05-14T20:52:12.429Z,7.32
2023-05-14T20:54:39.150Z,7.15
2023-05-14T20:57:06.007Z,7.50
2023-05-14T20:59:32.593Z,7.10
2023-05-14T21:01:59.252Z,10.67
2023-05-14T21:04:27.535Z,10.25
2023-05-14T21:06:54.314Z,8.50
2023-05-14T21:09:20.956Z,8.25
2023-05-14T21:11:47.564Z,8.05
2023-05-14T21:14:14.288Z,7.43
2023-05-14T21:16:41.143Z,9.30
2023-05-14T21:19:07.949Z,8.60
2023-05-14T21:21:36.002Z,8.40
2023-05-14T21:24:02.782Z,10.18
2023-05-14T21:26:31.710Z,7.87
2023-05-14T21:28:58.687Z,8.85
2023-05-14T21:31:25.616Z,8.40
2023-05-14T21:33:52.623Z,8.07
2023-05-14T21:36:19.297Z,9.38
2023-05-14T21:38:47.356Z,7.63
2023-05-14T21:41:14.068Z,6.85
2023-05-14T21:43:40.780Z,8.10
2023-05-14T21:46:07.641Z,7.88
2023-05-14T21:48:34.417Z,8.25
2023-05-14T21:51:01.236Z,7.90
2023-05-14T21:53:27.922Z,7.80
2023-05-14T21:55:56.111Z,8.65
2023-05-14T21:58:22.786Z,9.02
2023-05-14T22:00:49.372Z,9.10
2023-05-14T22:03:16.120Z,9.73
2023-05-14T22:05:42.819Z,10.43
2023-05-14T22:08:09.537Z,9.95
2023-05-14T22:10:36.190Z,9.68
2023-05-14T22:13:04.196Z,11.88
2023-05-14T22:15:30.829Z,10.23
2023-05-14T22:17:57.554Z,13.35
2023-05-14T22:20:24.422Z,8.45
2023-05-14T22:22:51.194Z,10.15
2023-05-14T22:25:17.881Z,10.00
2023-05-14T22:27:44.455Z,10.90
2023-05-14T22:30:13.615Z,9.70
2023-05-14T22:32:40.407Z,10.35
2023-05-14T22:35:07.558Z,8.65
2023-05-14T22:37:34.236Z,9.88
2023-05-14T22:40:00.962Z,10.57
2023-05-14T22:42:27.642Z,9.93
2023-05-14T22:44:54.252Z,10.88
2023-05-14T22:47:22.372Z,10.02
2023-05-14T22:49:49.031Z,10.15
2023-05-14T22:52:15.653Z,11.13
2023-05-14T22:54:42.239Z,9.82
2023-05-14T22:57:08.809Z,9.57
2023-05-14T22:59:35.448Z,9.95
2023-05-14T23:02:02.159Z,9.27
2023-05-14T23:04:30.316Z,10.47
2023-05-14T23:06:57.763Z,11.27
2023-05-14T23:09:24.350Z,10.27
2023-05-14T23:11:50.958Z,8.90
2023-05-14T23:14:17.737Z,9.55
2023-05-14T23:16:44.445Z,10.13
2023-05-14T23:19:11.348Z,12.95
2023-05-14T23:21:39.532Z,11.75
2023-05-14T23:24:06.966Z,11.40
2023-05-14T23:26:33.802Z,10.35
2023-05-14T23:29:00.408Z,10.60
2023-05-14T23:31:27.118Z,11.32
2023-05-14T23:33:53.804Z,10.45
2023-05-14T23:36:20.577Z,9.50
2023-05-14T23:38:48.709Z,11.70
2023-05-14T23:41:15.266Z,9.50
2023-05-14T23:43:41.903Z,11.38
2023-05-14T23:46:08.585Z,10.85
2023-05-14T23:48:35.244Z,10.43
2023-05-14T23:51:01.878Z,10.07
2023-05-14T23:53:28.498Z,11.10
2023-05-14T23:55:56.558Z,16.67
2023-05-14T23:58:23.233Z,11.80
